Time;durP1;ratioP1;P1;durP2;ratioP2;P2;SDS_P1;SDS_P2;PMS_P1;PMS_P2;Temp;Humidity;BMP_temperature;BMP_pressure;BME280_temperature;BME280_humidity;BME280_pressure;Samples;Min_cycle;Max_cycle;Signal;HPM_P1;HPM_P2
2023/05/13 00:00:29;;;;;;;9.63;4.40;;;16.50;99.90;;;;;;5046453;28;20231;-74
2023/05/13 00:03:00;;;;;;;9.73;4.47;;;16.70;99.90;;;;;;5046352;28;20217;-73
2023/05/13 00:05:31;;;;;;;8.00;4.20;;;16.80;99.90;;;;;;5035193;28;20186;-74
2023/05/13 00:08:06;;;;;;;10.85;4.50;;;17.00;99.90;;;;;;5038584;28;20198;-73
2023/05/13 00:10:37;;;;;;;7.70;4.47;;;17.10;99.90;;;;;;5048529;28;20225;-74
2023/05/13 00:13:09;;;;;;;6.88;4.05;;;17.30;99.90;;;;;;5038748;28;20244;-75
2023/05/13 00:15:42;;;;;;;9.07;4.10;;;17.50;99.90;;;;;;5045630;28;20249;-74
2023/05/13 00:18:13;;;;;;;6.18;3.70;;;17.70;99.90;;;;;;5037340;28;20209;-73
2023/05/13 00:20:44;;;;;;;6.95;3.80;;;17.90;99.90;;;;;;5044723;28;20313;-72
2023/05/13 00:23:15;;;;;;;7.75;4.07;;;18.00;99.90;;;;;;5035008;28;20198;-74
2023/05/13 00:25:46;;;;;;;8.27;3.88;;;18.10;99.90;;;;;;5034672;28;20190;-74
2023/05/13 00:28:18;;;;;;;6.00;3.63;;;18.10;99.90;;;;;;5035256;28;20662;-73
2023/05/13 00:30:51;;;;;;;8.18;4.15;;;18.00;99.90;;;;;;5042350;28;20346;-73
2023/05/13 00:33:22;;;;;;;10.38;4.90;;;18.10;99.90;;;;;;5043843;28;20210;-72
2023/05/13 00:35:53;;;;;;;10.20;4.50;;;18.30;99.90;;;;;;5043217;28;20222;-72
2023/05/13 00:38:24;;;;;;;8.45;4.07;;;18.50;99.90;;;;;;5044076;28;20194;-73
2023/05/13 00:40:55;;;;;;;6.87;3.60;;;18.80;99.90;;;;;;5050430;28;20208;-72
2023/05/13 00:43:26;;;;;;;7.78;3.17;;;19.00;99.90;;;;;;5042041;28;20198;-73
2023/05/13 00:46:00;;;;;;;5.68;2.38;;;19.10;99.90;;;;;;5044512;28;20206;-74
2023/05/13 00:48:31;;;;;;;3.95;2.20;;;19.30;99.90;;;;;;5038656;28;20209;-73
2023/05/13 00:51:03;;;;;;;8.48;2.80;;;19.40;99.90;;;;;;5047005;28;20193;-73
2023/05/13 00:53:35;;;;;;;6.50;2.47;;;19.60;99.90;;;;;;5053076;28;20656;-73
2023/05/13 00:56:07;;;;;;;5.13;2.10;;;19.70;99.90;;;;;;5052377;28;20197;-73
2023/05/13 00:58:38;;;;;;;6.18;2.17;;;19.80;99.90;;;;;;5054129;28;20197;-74
2023/05/13 01:01:18;;;;;;;3.08;1.80;;;19.70;99.90;;;;;;5052832;28;20233;-73
2023/05/13 01:03:57;;;;;;;5.53;2.25;;;19.60;99.90;;;;;;5048832;28;20201;-75
2023/05/13 01:06:35;;;;;;;5.20;2.00;;;19.50;99.90;;;;;;5049685;28;20198;-75
2023/05/13 01:09:10;;;;;;;3.92;2.63;;;19.40;99.90;;;;;;5051690;28;20201;-75
2023/05/13 01:11:43;;;;;;;5.60;3.50;;;19.30;99.90;;;;;;5053162;28;20193;-76
2023/05/13 01:14:18;;;;;;;6.15;2.42;;;19.20;99.90;;;;;;5047808;28;20581;-76
2023/05/13 01:16:55;;;;;;;4.32;2.10;;;19.10;99.90;;;;;;5051701;28;20201;-76
2023/05/13 01:19:35;;;;;;;3.92;2.15;;;19.10;99.90;;;;;;5041103;28;20232;-75
2023/05/13 01:22:09;;;;;;;4.35;1.90;;;19.10;99.90;;;;;;5043334;28;20209;-75
2023/05/13 01:24:40;;;;;;;5.13;2.03;;;19.20;99.90;;;;;;5048251;28;20554;-76
2023/05/13 01:27:11;;;;;;;5.00;1.90;;;19.50;99.90;;;;;;5042208;28;20209;-75
2023/05/13 01:29:42;;;;;;;5.13;2.25;;;19.80;99.90;;;;;;5043646;28;20194;-75
2023/05/13 01:32:14;;;;;;;4.40;2.30;;;20.10;99.90;;;;;;5030115;28;20197;-74
2023/05/13 01:34:47;;;;;;;4.65;2.10;;;20.20;99.90;;;;;;5048632;28;20194;-75
2023/05/13 01:37:20;;;;;;;5.50;1.90;;;20.30;99.90;;;;;;5041382;28;20194;-76
2023/05/13 01:39:52;;;;;;;2.95;2.00;;;20.40;99.90;;;;;;5047707;28;20201;-75
2023/05/13 01:42:25;;;;;;;6.85;2.30;;;20.50;99.90;;;;;;5034424;28;20229;-75
2023/05/13 01:44:56;;;;;;;6.05;2.03;;;20.60;99.90;;;;;;5050927;28;20197;-75
2023/05/13 01:47:27;;;;;;;3.22;1.95;;;20.70;99.90;;;;;;5051734;28;20205;-75
2023/05/13 01:49:58;;;;;;;3.60;1.95;;;20.60;99.90;;;;;;5050796;28;20665;-75
2023/05/13 01:52:31;;;;;;;9.23;2.38;;;20.60;99.90;;;;;;5045291;28;20567;-75
2023/05/13 01:55:02;;;;;;;4.95;1.90;;;20.40;99.90;;;;;;5032869;28;20293;-75
2023/05/13 01:57:33;;;;;;;5.30;2.20;;;20.30;99.90;;;;;;5052101;28;20675;-76
2023/05/13 02:00:05;;;;;;;7.28;1.80;;;20.20;99.90;;;;;;5042221;28;20562;-75
2023/05/13 02:02:36;;;;;;;4.65;2.00;;;20.00;99.90;;;;;;5051752;28;20218;-75
2023/05/13 02:05:07;;;;;;;4.47;1.80;;;19.90;99.90;;;;;;5042375;28;20198;-75
2023/05/13 02:07:40;;;;;;;5.90;2.17;;;19.70;99.90;;;;;;5042710;28;20194;-75
2023/05/13 02:10:12;;;;;;;4.78;1.98;;;19.60;99.90;;;;;;5051346;28;20198;-75
2023/05/13 02:12:43;;;;;;;6.93;2.10;;;19.40;99.90;;;;;;5052270;28;20200;-75
2023/05/13 02:15:15;;;;;;;4.03;2.15;;;19.40;99.90;;;;;;5038914;28;20256;-74
2023/05/13 02:17:46;;;;;;;3.90;1.92;;;19.30;99.90;;;;;;5043993;28;20616;-74
2023/05/13 02:20:17;;;;;;;6.88;2.05;;;19.40;99.90;;;;;;5052715;28;20225;-75
2023/05/13 02:22:50;;;;;;;3.30;1.90;;;19.60;99.90;;;;;;5050279;28;20563;-75
2023/05/13 02:25:21;;;;;;;3.72;2.00;;;19.70;99.90;;;;;;5037365;28;20190;-76
2023/05/13 02:27:53;;;;;;;5.72;1.90;;;19.70;99.90;;;;;;5036293;28;20199;-74
2023/05/13 02:30:25;;;;;;;2.63;1.73;;;19.60;99.90;;;;;;5050745;28;20204;-75
2023/05/13 02:32:57;;;;;;;4.18;2.15;;;19.70;99.90;;;;;;5043221;28;20665;-74
2023/05/13 02:35:28;;;;;;;4.30;1.80;;;20.00;99.90;;;;;;5048955;28;20270;-74
2023/05/13 02:38:02;;;;;;;6.45;2.03;;;20.10;99.90;;;;;;5052753;28;20285;-75
2023/05/13 02:40:33;;;;;;;4.30;2.35;;;20.10;99.90;;;;;;5052536;28;20198;-75
2023/05/13 02:43:04;;;;;;;6.38;2.40;;;19.90;99.90;;;;;;5049192;28;20227;-75
2023/05/13 02:45:36;;;;;;;4.18;2.03;;;19.90;99.90;;;;;;5050321;28;20641;-75
2023/05/13 02:48:07;;;;;;;3.47;1.98;;;19.80;99.90;;;;;;5051970;28;20198;-74
2023/05/13 02:50:39;;;;;;;6.18;2.03;;;19.70;99.90;;;;;;5056470;28;20201;-74
2023/05/13 02:53:12;;;;;;;3.40;1.85;;;19.70;99.90;;;;;;5056181;28;20540;-75
2023/05/13 02:55:43;;;;;;;3.75;2.05;;;19.60;99.90;;;;;;5056085;28;20208;-74
2023/05/13 02:58:14;;;;;;;5.93;1.77;;;19.60;99.90;;;;;;5055986;28;20649;-75
2023/05/13 03:00:45;;;;;;;9.45;2.90;;;19.50;99.90;;;;;;5056281;28;20234;-74
2023/05/13 03:03:16;;;;;;;5.30;2.20;;;19.60;99.90;;;;;;5055960;28;20217;-75
2023/05/13 03:05:47;;;;;;;4.05;1.83;;;19.60;99.90;;;;;;5056335;28;20511;-76
2023/05/13 03:08:20;;;;;;;4.22;2.13;;;19.60;99.90;;;;;;5056002;28;20186;-75
2023/05/13 03:10:52;;;;;;;2.95;1.92;;;19.60;99.90;;;;;;5055946;28;20556;-75
2023/05/13 03:13:24;;;;;;;5.18;2.08;;;19.50;99.90;;;;;;5055788;28;20197;-74
2023/05/13 03:15:55;;;;;;;4.53;1.67;;;19.50;99.90;;;;;;5056067;28;20561;-75
2023/05/13 03:18:27;;;;;;;4.65;2.20;;;19.50;99.90;;;;;;5055579;28;20222;-75
2023/05/13 03:20:58;;;;;;;3.88;2.00;;;19.50;99.90;;;;;;5056229;28;20637;-74
2023/05/13 03:23:31;;;;;;;5.05;1.80;;;19.40;99.90;;;;;;5055593;28;20225;-75
2023/05/13 03:26:02;;;;;;;8.40;2.13;;;19.30;99.90;;;;;;5055630;28;20201;-75
2023/05/13 03:28:33;;;;;;;5.45;2.15;;;19.30;99.90;;;;;;5055492;28;20240;-74
2023/05/13 03:31:04;;;;;;;7.18;2.00;;;19.30;99.90;;;;;;5055785;28;20186;-75
2023/05/13 03:33:36;;;;;;;6.35;2.00;;;19.20;99.90;;;;;;5053472;28;20197;-75
2023/05/13 03:36:08;;;;;;;3.95;1.95;;;19.20;99.90;;;;;;5055520;28;20198;-75
2023/05/13 03:38:41;;;;;;;5.95;1.70;;;19.20;99.90;;;;;;5053472;28;20186;-76
2023/05/13 03:41:12;;;;;;;5.53;2.03;;;19.20;99.90;;;;;;5035539;28;20195;-76
2023/05/13 03:43:43;;;;;;;2.95;1.75;;;19.20;99.90;;;;;;5035727;28;20222;-76
2023/05/13 03:46:14;;;;;;;9.80;2.60;;;19.20;99.90;;;;;;5035715;28;20201;-75
2023/05/13 03:48:45;;;;;;;4.32;1.60;;;19.30;99.90;;;;;;5035434;28;20663;-75
2023/05/13 03:51:16;;;;;;;3.33;1.42;;;19.40;99.90;;;;;;5035489;28;20583;-74
2023/05/13 03:53:49;;;;;;;5.55;1.58;;;19.50;99.90;;;;;;5035206;28;20202;-74
2023/05/13 03:56:23;;;;;;;2.67;1.52;;;19.40;99.90;;;;;;5034579;28;20191;-75
2023/05/13 03:58:54;;;;;;;3.60;1.60;;;19.30;99.90;;;;;;5035288;28;20200;-75
2023/05/13 04:01:25;;;;;;;3.50;1.40;;;19.30;99.90;;;;;;5035153;28;20241;-75
2023/05/13 04:03:57;;;;;;;2.72;1.42;;;19.30;99.90;;;;;;5035416;28;20218;-74
2023/05/13 04:06:28;;;;;;;3.92;1.30;;;19.30;99.90;;;;;;5035144;28;20646;-75
2023/05/13 04:09:03;;;;;;;2.95;1.30;;;19.40;99.90;;;;;;5034950;28;20198;-75
2023/05/13 04:11:34;;;;;;;2.70;1.45;;;19.70;99.90;;;;;;5034962;28;20190;-74
2023/05/13 04:14:05;;;;;;;4.40;1.65;;;19.90;99.90;;;;;;5035231;28;20622;-75
2023/05/13 04:16:36;;;;;;;4.40;1.70;;;19.80;99.90;;;;;;5034875;28;20672;-74
2023/05/13 04:19:07;;;;;;;3.47;1.70;;;19.70;99.90;;;;;;5034881;28;20302;-74
2023/05/13 04:21:38;;;;;;;5.10;1.80;;;19.50;99.90;;;;;;5035149;28;20195;-74
2023/05/13 04:24:12;;;;;;;4.22;1.92;;;19.40;99.90;;;;;;5034791;28;20210;-74
2023/05/13 04:26:43;;;;;;;6.03;2.38;;;19.30;99.90;;;;;;5034633;28;20190;-75
2023/05/13 04:29:16;;;;;;;4.78;1.80;;;19.20;99.90;;;;;;5034670;28;20557;-74
2023/05/13 04:31:47;;;;;;;4.72;1.73;;;19.20;99.90;;;;;;5034633;28;20551;-75
2023/05/13 04:34:18;;;;;;;3.13;1.90;;;19.10;99.90;;;;;;5034446;28;20201;-75
2023/05/13 04:36:49;;;;;;;3.85;1.70;;;19.10;99.90;;;;;;5034824;28;20193;-75
2023/05/13 04:39:22;;;;;;;4.40;1.83;;;19.10;99.90;;;;;;5034466;28;20704;-75
2023/05/13 04:41:53;;;;;;;3.97;1.85;;;19.00;99.90;;;;;;5034278;28;20194;-75
2023/05/13 04:44:25;;;;;;;6.65;1.90;;;19.00;99.90;;;;;;5033376;28;20577;-75
2023/05/13 04:46:56;;;;;;;5.28;1.70;;;19.00;99.90;;;;;;5034207;28;20186;-75
2023/05/13 04:49:27;;;;;;;4.80;2.10;;;19.00;99.90;;;;;;5034713;28;20554;-75
2023/05/13 04:51:58;;;;;;;7.60;1.80;;;19.00;99.90;;;;;;5034039;28;20191;-74
2023/05/13 04:54:34;;;;;;;3.15;1.63;;;18.90;99.90;;;;;;5034065;28;20194;-75
2023/05/13 04:57:05;;;;;;;7.07;2.00;;;18.80;99.90;;;;;;5044481;28;20201;-75
2023/05/13 04:59:36;;;;;;;3.47;1.75;;;18.80;99.90;;;;;;5037935;28;20194;-75
2023/05/13 05:02:07;;;;;;;4.13;1.50;;;18.80;99.90;;;;;;5046058;28;20586;-75
2023/05/13 05:04:38;;;;;;;6.68;1.70;;;18.80;99.90;;;;;;5050284;28;20584;-75
2023/05/13 05:07:09;;;;;;;3.58;1.67;;;18.70;99.90;;;;;;5053743;28;20200;-75
2023/05/13 05:09:42;;;;;;;4.63;2.10;;;18.70;99.90;;;;;;5050436;28;20194;-75
2023/05/13 05:12:14;;;;;;;2.63;1.77;;;18.70;99.90;;;;;;5048690;28;20574;-75
2023/05/13 05:14:45;;;;;;;4.78;1.95;;;18.70;99.90;;;;;;5042736;28;20197;-76
2023/05/13 05:17:16;;;;;;;4.18;1.73;;;18.70;99.90;;;;;;5046243;28;20244;-75
2023/05/13 05:19:47;;;;;;;2.83;1.60;;;18.70;99.90;;;;;;5053059;28;20213;-76
2023/05/13 05:22:18;;;;;;;2.55;1.70;;;18.70;99.90;;;;;;5047196;28;20193;-76
2023/05/13 05:24:51;;;;;;;7.28;2.28;;;18.70;99.90;;;;;;5037588;28;20198;-76
2023/05/13 05:27:22;;;;;;;2.65;1.67;;;18.70;99.90;;;;;;5042446;28;20209;-76
2023/05/13 05:29:53;;;;;;;4.25;1.85;;;18.70;99.90;;;;;;5053068;28;20255;-76
2023/05/13 05:32:25;;;;;;;3.20;1.60;;;18.70;99.90;;;;;;5042031;28;20204;-76
2023/05/13 05:34:56;;;;;;;4.80;1.77;;;18.60;99.90;;;;;;5043323;28;20204;-76
2023/05/13 05:37:27;;;;;;;4.78;1.92;;;18.60;99.90;;;;;;5053318;28;20656;-76
2023/05/13 05:40:00;;;;;;;5.70;1.80;;;18.70;99.90;;;;;;5052680;28;20197;-76
2023/05/13 05:42:32;;;;;;;3.90;1.88;;;18.60;99.90;;;;;;5051772;28;20709;-76
2023/05/13 05:45:03;;;;;;;2.58;1.67;;;18.60;99.90;;;;;;5048655;28;20198;-75
2023/05/13 05:47:34;;;;;;;4.38;1.80;;;18.60;99.90;;;;;;5036466;28;20199;-75
2023/05/13 05:50:05;;;;;;;5.45;2.47;;;18.60;99.90;;;;;;5044369;28;20657;-75
2023/05/13 05:52:36;;;;;;;3.30;1.88;;;18.60;99.90;;;;;;5048296;28;20223;-77
2023/05/13 05:55:10;;;;;;;5.47;1.90;;;18.60;99.90;;;;;;5046048;28;20190;-74
2023/05/13 05:57:41;;;;;;;2.60;1.80;;;18.60;99.90;;;;;;5037140;28;20659;-75
2023/05/13 06:00:13;;;;;;;4.97;2.13;;;18.50;99.90;;;;;;5051006;28;20546;-75
2023/05/13 06:02:45;;;;;;;4.18;1.80;;;18.60;99.90;;;;;;5046458;28;20201;-75
2023/05/13 06:05:16;;;;;;;4.75;2.00;;;18.50;99.90;;;;;;5049745;28;20193;-75
2023/05/13 06:07:47;;;;;;;4.25;2.00;;;18.50;99.90;;;;;;5052285;28;20308;-74
2023/05/13 06:10:20;;;;;;;5.72;2.70;;;18.50;99.90;;;;;;5053257;28;20186;-75
2023/05/13 06:12:52;;;;;;;3.95;2.33;;;18.50;99.90;;;;;;5051264;28;20197;-75
2023/05/13 06:15:23;;;;;;;4.30;2.13;;;18.50;99.90;;;;;;5050229;28;20201;-75
2023/05/13 06:17:54;;;;;;;5.78;2.20;;;18.50;99.90;;;;;;5051652;28;20228;-75
2023/05/13 06:20:25;;;;;;;5.45;2.28;;;18.50;99.90;;;;;;5045568;28;20201;-75
2023/05/13 06:22:56;;;;;;;5.28;2.30;;;18.50;99.90;;;;;;5051364;28;20581;-76
2023/05/13 06:25:29;;;;;;;5.05;2.20;;;18.50;99.90;;;;;;5049770;28;20201;-75
2023/05/13 06:28:00;;;;;;;6.95;2.20;;;18.50;99.90;;;;;;5043348;28;20193;-76
2023/05/13 06:30:31;;;;;;;3.60;1.98;;;18.50;99.90;;;;;;5049781;28;20197;-76
2023/05/13 06:33:02;;;;;;;2.28;1.60;;;18.50;99.90;;;;;;5049384;28;20558;-75
2023/05/13 06:35:33;;;;;;;4.70;1.98;;;18.50;99.90;;;;;;5040978;28;20201;-76
2023/05/13 06:38:05;;;;;;;4.97;1.85;;;18.50;99.90;;;;;;5035485;28;20209;-76
2023/05/13 06:40:38;;;;;;;5.95;2.20;;;18.50;99.90;;;;;;5045209;28;20203;-76
2023/05/13 06:43:09;;;;;;;4.88;2.25;;;18.50;99.90;;;;;;5038934;28;20218;-76
2023/05/13 06:45:40;;;;;;;6.32;2.00;;;18.50;99.90;;;;;;5040496;28;20559;-76
2023/05/13 06:48:11;;;;;;;4.20;1.85;;;18.50;99.90;;;;;;5046196;28;20561;-76
2023/05/13 06:50:42;;;;;;;3.40;2.17;;;18.50;99.90;;;;;;5048320;28;20653;-75
2023/05/13 06:53:13;;;;;;;5.32;2.30;;;18.50;99.90;;;;;;5043605;28;20650;-76
2023/05/13 06:55:46;;;;;;;6.43;2.15;;;18.40;99.90;;;;;;5050859;28;20190;-76
2023/05/13 06:58:17;;;;;;;3.58;1.98;;;18.40;99.90;;;;;;5050985;28;20197;-76
2023/05/13 07:00:48;;;;;;;4.10;2.30;;;18.40;99.90;;;;;;5047707;28;20238;-76
2023/05/13 07:03:19;;;;;;;4.35;2.28;;;18.40;99.90;;;;;;5046446;28;20221;-75
2023/05/13 07:05:51;;;;;;;4.68;2.03;;;18.30;99.90;;;;;;5048231;28;20243;-76
2023/05/13 07:08:22;;;;;;;2.33;1.90;;;18.30;99.90;;;;;;5053705;28;20196;-75
2023/05/13 07:10:55;;;;;;;4.10;2.20;;;18.30;99.90;;;;;;5053573;28;20205;-76
2023/05/13 07:13:26;;;;;;;4.35;2.08;;;18.20;99.90;;;;;;5054142;28;20194;-76
2023/05/13 07:15:57;;;;;;;5.13;1.90;;;18.20;99.90;;;;;;5055671;28;20543;-76
2023/05/13 07:18:28;;;;;;;5.25;1.95;;;18.20;99.90;;;;;;5055305;28;20217;-75
2023/05/13 07:20:59;;;;;;;7.47;2.42;;;18.10;99.90;;;;;;5053234;28;20204;-75
2023/05/13 07:23:32;;;;;;;4.00;1.90;;;18.10;99.90;;;;;;5055789;28;20241;-76
2023/05/13 07:26:05;;;;;;;4.40;2.13;;;18.00;99.90;;;;;;5055601;28;20193;-76
2023/05/13 07:28:36;;;;;;;4.38;1.80;;;18.00;99.90;;;;;;5047250;28;20578;-76
2023/05/13 07:31:08;;;;;;;4.05;2.00;;;18.00;99.90;;;;;;5048686;28;20208;-76
2023/05/13 07:33:39;;;;;;;3.78;2.17;;;18.00;99.90;;;;;;5040323;28;20213;-76
2023/05/13 07:36:11;;;;;;;6.40;2.10;;;17.90;99.90;;;;;;5045897;28;20198;-76
2023/05/13 07:38:43;;;;;;;3.83;1.70;;;17.90;99.90;;;;;;5044548;28;20240;-76
2023/05/13 07:41:16;;;;;;;3.90;1.83;;;17.80;99.90;;;;;;5049688;28;20289;-75
2023/05/13 07:43:47;;;;;;;3.17;1.60;;;17.80;99.90;;;;;;5048728;28;20232;-74
2023/05/13 07:46:18;;;;;;;3.58;1.85;;;17.70;99.90;;;;;;5043731;28;20201;-76
2023/05/13 07:48:49;;;;;;;4.38;2.00;;;17.70;99.90;;;;;;5042158;28;20205;-76
2023/05/13 07:51:20;;;;;;;3.20;1.88;;;17.60;99.90;;;;;;5049561;28;20202;-75
2023/05/13 07:53:51;;;;;;;4.28;2.30;;;17.60;99.90;;;;;;5044167;28;20568;-76
2023/05/13 07:56:24;;;;;;;4.00;2.30;;;17.60;99.90;;;;;;5044289;28;20205;-76
2023/05/13 07:58:55;;;;;;;4.30;2.20;;;17.60;99.90;;;;;;5054668;28;20244;-75
2023/05/13 08:01:27;;;;;;;3.08;2.45;;;17.50;99.90;;;;;;5044326;28;20237;-75
2023/05/13 08:03:58;;;;;;;3.40;2.28;;;17.50;99.90;;;;;;5035432;28;20238;-75
2023/05/13 08:06:30;;;;;;;3.38;2.10;;;17.50;99.90;;;;;;5035156;28;20194;-75
2023/05/13 08:09:01;;;;;;;4.90;2.28;;;17.50;99.90;;;;;;5035185;28;20240;-75
2023/05/13 08:11:34;;;;;;;4.07;2.50;;;17.40;99.90;;;;;;5035031;28;20194;-75
2023/05/13 08:14:06;;;;;;;2.80;1.98;;;17.40;99.90;;;;;;5034857;28;20194;-75
2023/05/13 08:16:38;;;;;;;3.70;2.30;;;17.40;99.90;;;;;;5035043;28;20274;-75
2023/05/13 08:19:09;;;;;;;5.30;2.40;;;17.30;99.90;;;;;;5035213;28;20222;-75
2023/05/13 08:21:40;;;;;;;3.92;2.30;;;17.30;99.90;;;;;;5035233;28;20201;-75
2023/05/13 08:24:11;;;;;;;4.50;2.20;;;17.30;99.90;;;;;;5035331;28;20222;-75
2023/05/13 08:26:44;;;;;;;3.20;1.92;;;17.20;99.90;;;;;;5034830;28;20638;-75
2023/05/13 08:29:16;;;;;;;4.20;2.20;;;17.20;99.90;;;;;;5034551;28;20191;-75
2023/05/13 08:31:47;;;;;;;3.47;2.10;;;17.20;99.90;;;;;;5034861;28;20196;-75
2023/05/13 08:34:18;;;;;;;3.78;2.03;;;17.20;99.90;;;;;;5034681;28;20646;-75
2023/05/13 08:36:49;;;;;;;3.65;2.03;;;17.20;99.90;;;;;;5034635;28;20564;-74
2023/05/13 08:39:20;;;;;;;5.55;2.08;;;17.10;99.90;;;;;;5034602;28;20281;-75
2023/05/13 08:41:58;;;;;;;3.03;2.10;;;17.10;99.90;;;;;;5034655;28;20193;-75
2023/05/13 08:44:33;;;;;;;3.28;2.28;;;17.10;99.90;;;;;;5034271;28;20645;-75
2023/05/13 08:47:14;;;;;;;5.30;2.33;;;17.10;99.90;;;;;;5034678;28;20201;-76
2023/05/13 08:49:47;;;;;;;5.45;2.50;;;17.10;99.90;;;;;;5048543;28;20205;-75
2023/05/13 08:52:18;;;;;;;3.72;2.55;;;17.00;99.90;;;;;;5053946;28;20190;-75
2023/05/13 08:54:50;;;;;;;8.88;4.50;;;17.00;99.90;;;;;;5053447;28;20197;-75
2023/05/13 08:57:23;;;;;;;9.40;4.85;;;17.00;99.90;;;;;;5053616;28;20193;-75
2023/05/13 08:59:54;;;;;;;7.47;4.60;;;17.00;99.90;;;;;;5054141;28;20200;-75
2023/05/13 09:02:26;;;;;;;7.32;4.88;;;16.90;99.90;;;;;;5053699;28;20229;-75
2023/05/13 09:05:00;;;;;;;8.85;5.47;;;17.00;99.90;;;;;;5054172;28;20236;-75
2023/05/13 09:07:34;;;;;;;9.90;5.43;;;16.90;99.90;;;;;;5053898;28;20203;-75
2023/05/13 09:10:05;;;;;;;11.50;5.55;;;16.90;99.90;;;;;;5054003;28;20212;-75
2023/05/13 09:12:55;;;;;;;9.15;5.55;;;16.90;99.90;;;;;;5053666;28;20197;-75
2023/05/13 09:15:27;;;;;;;10.98;5.93;;;16.90;99.90;;;;;;5053848;28;20201;-75
2023/05/13 09:18:01;;;;;;;9.07;6.00;;;16.80;99.90;;;;;;5053359;28;20575;-75
2023/05/13 09:20:32;;;;;;;10.90;5.50;;;16.90;99.90;;;;;;5053992;28;20189;-75
2023/05/13 09:23:05;;;;;;;8.93;6.03;;;16.80;99.90;;;;;;5053527;28;20200;-75
2023/05/13 09:25:36;;;;;;;10.73;6.35;;;16.80;99.90;;;;;;5053888;28;20221;-75
2023/05/13 09:28:10;;;;;;;10.57;6.57;;;16.80;99.90;;;;;;5053144;28;20201;-74
2023/05/13 09:30:43;;;;;;;13.38;7.15;;;16.80;99.90;;;;;;5053085;28;20190;-75
2023/05/13 09:33:18;;;;;;;11.88;6.85;;;16.80;99.90;;;;;;5047791;28;20287;-75
2023/05/13 09:35:53;;;;;;;11.85;6.25;;;16.90;99.90;;;;;;5051043;28;20209;-76
2023/05/13 09:38:27;;;;;;;10.88;5.88;;;16.80;99.90;;;;;;5038056;28;20276;-75
2023/05/13 09:41:00;;;;;;;12.10;5.75;;;16.80;99.90;;;;;;5047352;28;20683;-75
2023/05/13 09:43:35;;;;;;;9.18;5.38;;;16.70;99.90;;;;;;5049252;28;20665;-74
2023/05/13 09:46:07;;;;;;;10.05;5.93;;;16.70;99.90;;;;;;5043214;28;20221;-74
2023/05/13 09:48:38;;;;;;;10.40;5.35;;;16.80;99.90;;;;;;5045972;28;20190;-74
2023/05/13 09:51:10;;;;;;;12.68;5.38;;;16.70;99.90;;;;;;5039978;28;20580;-75
2023/05/13 09:53:42;;;;;;;11.07;5.35;;;16.70;99.90;;;;;;5037518;28;20194;-76
2023/05/13 09:56:13;;;;;;;7.47;5.07;;;16.70;99.90;;;;;;5040289;28;20201;-75
2023/05/13 09:58:54;;;;;;;8.73;4.35;;;16.70;99.90;;;;;;5032082;28;20201;-74
2023/05/13 10:01:26;;;;;;;6.82;4.10;;;16.70;99.90;;;;;;5037181;28;20248;-75
2023/05/13 10:03:58;;;;;;;5.57;3.83;;;16.70;99.90;;;;;;5033655;28;21002;-75
2023/05/13 10:06:31;;;;;;;6.25;4.07;;;16.60;99.90;;;;;;5043209;28;20204;-75
2023/05/13 10:09:04;;;;;;;4.85;3.80;;;16.70;99.90;;;;;;5050376;28;20198;-75
2023/05/13 10:11:36;;;;;;;4.38;3.33;;;16.60;99.90;;;;;;5044606;28;20193;-74
2023/05/13 10:14:11;;;;;;;7.20;3.65;;;16.60;99.90;;;;;;5038014;28;20275;-75
2023/05/13 10:16:42;;;;;;;7.18;3.65;;;16.60;99.90;;;;;;5031231;28;20205;-75
2023/05/13 10:19:14;;;;;;;9.63;3.85;;;16.60;99.90;;;;;;5036436;28;20674;-75
2023/05/13 10:21:45;;;;;;;7.47;3.58;;;16.60;99.90;;;;;;5047326;28;20216;-75
2023/05/13 10:24:17;;;;;;;7.07;3.70;;;16.60;99.90;;;;;;5038911;28;20346;-75
2023/05/13 10:26:49;;;;;;;5.60;3.67;;;16.60;99.90;;;;;;5047866;28;20202;-75
2023/05/13 10:29:24;;;;;;;8.43;4.63;;;16.60;99.90;;;;;;5044787;28;20205;-75
2023/05/13 10:31:55;;;;;;;8.27;4.60;;;16.60;99.90;;;;;;5045645;28;20212;-75
2023/05/13 10:34:27;;;;;;;8.18;4.70;;;16.60;99.90;;;;;;5040351;28;20676;-75
2023/05/13 10:37:11;;;;;;;7.75;4.55;;;16.60;99.90;;;;;;5044695;28;20209;-75
2023/05/13 10:40:12;;;;;;;6.90;4.90;;;16.50;99.90;;;;;;5041505;28;20201;-74
2023/05/13 10:42:45;;;;;;;8.77;5.32;;;16.50;99.90;;;;;;5045088;28;20193;-74
2023/05/13 10:45:19;;;;;;;9.05;5.18;;;16.50;99.90;;;;;;5051156;28;20217;-75
2023/05/13 10:47:53;;;;;;;7.47;5.07;;;16.50;99.90;;;;;;5051730;28;20201;-75
2023/05/13 10:50:28;;;;;;;9.57;5.70;;;16.40;99.90;;;;;;5044677;28;20199;-75
2023/05/13 10:53:00;;;;;;;10.30;6.40;;;16.40;99.90;;;;;;5048405;28;20192;-75
2023/05/13 10:55:31;;;;;;;9.85;6.25;;;16.40;99.90;;;;;;5044779;28;20225;-75
2023/05/13 10:58:12;;;;;;;13.30;6.50;;;16.30;99.90;;;;;;5041991;28;20198;-74
2023/05/13 11:00:46;;;;;;;9.32;6.35;;;16.30;99.90;;;;;;5051705;28;20225;-74
2023/05/13 11:03:28;;;;;;;9.27;6.57;;;16.30;99.90;;;;;;5036139;28;20193;-75
2023/05/13 11:06:18;;;;;;;11.93;6.63;;;16.20;99.90;;;;;;5038737;28;20217;-75
2023/05/13 11:08:51;;;;;;;9.15;6.57;;;16.20;99.90;;;;;;5054881;28;20212;-74
2023/05/13 11:11:32;;;;;;;10.45;6.40;;;16.10;99.90;;;;;;5046361;28;20637;-75
2023/05/13 11:14:18;;;;;;;10.80;6.38;;;16.10;99.90;;;;;;5038075;28;20204;-75
2023/05/13 11:16:55;;;;;;;8.05;5.88;;;16.10;99.90;;;;;;5049947;28;20206;-75
2023/05/13 11:19:29;;;;;;;8.63;6.03;;;16.10;99.90;;;;;;5049853;28;20193;-74
2023/05/13 11:22:05;;;;;;;8.95;5.65;;;16.10;99.90;;;;;;5048633;28;20198;-75
2023/05/13 11:24:36;;;;;;;8.23;5.57;;;16.10;99.90;;;;;;5054352;28;20221;-74
2023/05/13 11:27:17;;;;;;;9.30;5.88;;;16.10;99.90;;;;;;5052900;28;20209;-74
2023/05/13 11:29:57;;;;;;;8.18;5.75;;;16.10;99.90;;;;;;5049040;28;20189;-75
2023/05/13 11:32:57;;;;;;;9.95;5.45;;;16.10;99.90;;;;;;5044830;28;20575;-75
2023/05/13 11:35:29;;;;;;;8.35;5.85;;;16.10;99.90;;;;;;5048333;28;20204;-75
2023/05/13 11:38:01;;;;;;;9.00;5.93;;;16.10;99.90;;;;;;5052908;28;20208;-75
2023/05/13 11:40:33;;;;;;;9.75;6.00;;;16.00;99.90;;;;;;5056211;28;20198;-75
2023/05/13 11:43:05;;;;;;;11.68;6.60;;;16.00;99.90;;;;;;5042835;28;20208;-75
2023/05/13 11:45:40;;;;;;;10.88;6.97;;;16.00;99.90;;;;;;5037062;28;20317;-75
2023/05/13 11:48:25;;;;;;;10.32;6.53;;;16.00;99.90;;;;;;5053273;28;20284;-74
2023/05/13 11:51:00;;;;;;;12.05;7.95;;;16.10;99.90;;;;;;5052090;28;20277;-74
2023/05/13 11:53:31;;;;;;;15.57;8.00;;;16.00;99.90;;;;;;5049993;28;20197;-75
2023/05/13 11:56:12;;;;;;;11.90;7.40;;;16.00;99.90;;;;;;5035502;28;20190;-75
2023/05/13 11:58:43;;;;;;;10.85;7.80;;;16.00;99.90;;;;;;5035592;28;20193;-75
2023/05/13 12:01:17;;;;;;;10.82;7.40;;;16.00;99.90;;;;;;5035220;28;20276;-75
2023/05/13 12:03:50;;;;;;;11.18;7.50;;;16.00;99.90;;;;;;5041652;28;20196;-75
2023/05/13 12:06:22;;;;;;;9.93;7.10;;;16.00;99.90;;;;;;5048387;28;20221;-75
2023/05/13 12:08:53;;;;;;;12.70;7.78;;;16.00;99.90;;;;;;5053555;28;20679;-75
2023/05/13 12:11:24;;;;;;;12.55;7.32;;;16.00;99.90;;;;;;5052617;28;20216;-75
2023/05/13 12:13:56;;;;;;;10.52;7.22;;;16.00;99.90;;;;;;5045992;28;20200;-74
2023/05/13 12:16:27;;;;;;;11.63;7.07;;;15.90;99.90;;;;;;5052973;28;20208;-75
2023/05/13 12:19:06;;;;;;;13.52;6.80;;;15.90;99.90;;;;;;5043069;28;20226;-75
2023/05/13 12:21:37;;;;;;;11.15;6.82;;;15.90;99.90;;;;;;5042568;28;20194;-75
2023/05/13 12:24:20;;;;;;;9.07;6.85;;;15.90;99.90;;;;;;5043202;28;20206;-75
2023/05/13 12:26:52;;;;;;;8.70;6.80;;;15.90;99.90;;;;;;5043582;28;20229;-75
2023/05/13 12:29:23;;;;;;;9.15;6.57;;;15.80;99.90;;;;;;5037472;28;20605;-75
2023/05/13 12:32:07;;;;;;;8.75;6.50;;;15.80;99.90;;;;;;5051677;28;20201;-75
2023/05/13 12:34:41;;;;;;;11.50;6.63;;;15.70;99.90;;;;;;5039714;28;20189;-75
2023/05/13 12:37:16;;;;;;;9.90;7.18;;;15.70;99.90;;;;;;5043124;28;20282;-75
2023/05/13 12:39:47;;;;;;;9.80;7.07;;;15.70;99.90;;;;;;5049360;28;20708;-75
2023/05/13 12:42:19;;;;;;;10.88;7.57;;;15.70;99.90;;;;;;5051522;28;20212;-75
2023/05/13 12:44:51;;;;;;;11.60;7.10;;;15.70;99.90;;;;;;5036113;28;20224;-75
2023/05/13 12:47:22;;;;;;;10.32;7.07;;;15.70;99.90;;;;;;5050677;28;20182;-75
2023/05/13 12:50:01;;;;;;;9.57;7.00;;;15.70;99.90;;;;;;5054165;28;20194;-74
2023/05/13 12:52:32;;;;;;;11.43;7.28;;;15.60;99.90;;;;;;5049168;28;20199;-74
2023/05/13 12:55:03;;;;;;;9.55;7.00;;;15.60;99.90;;;;;;5033705;28;20198;-75
2023/05/13 12:57:34;;;;;;;9.80;6.50;;;15.60;99.90;;;;;;5034551;28;20195;-75
2023/05/13 13:00:05;;;;;;;9.07;6.10;;;15.50;99.90;;;;;;5034423;28;20558;-75
2023/05/13 13:02:37;;;;;;;9.57;6.10;;;15.50;99.90;;;;;;5041657;28;20382;-76
2023/05/13 13:05:13;;;;;;;8.30;5.82;;;15.50;99.90;;;;;;5045834;28;20683;-74
2023/05/13 13:07:44;;;;;;;7.80;6.00;;;15.40;99.90;;;;;;5046830;28;21864;-75
2023/05/13 13:10:15;;;;;;;9.10;6.00;;;15.40;99.90;;;;;;5033691;28;20197;-75
2023/05/13 13:12:47;;;;;;;7.68;5.72;;;15.40;99.90;;;;;;5043894;28;20204;-75